createdAt,value
2024-03-06T00:02:21.472Z,100392.19
2024-03-06T00:04:48.045Z,100395.75
2024-03-06T00:07:14.508Z,100394.75
2024-03-06T00:09:40.945Z,100396.78
2024-03-06T00:12:07.461Z,100389.56
2024-03-06T00:14:34.157Z,100388.59
2024-03-06T00:17:00.753Z,100390.41
2024-03-06T00:19:27.286Z,100395.63
2024-03-06T00:21:53.662Z,100399.34
2024-03-06T00:24:20.348Z,100397.59
2024-03-06T00:26:48.139Z,100396.84
2024-03-06T00:29:15.735Z,100405.63
2024-03-06T00:31:46.323Z,100403.28
2024-03-06T00:36:56.714Z,100396.31
2024-03-06T00:39:23.127Z,100397.09
2024-03-06T00:41:49.589Z,100405.31
2024-03-06T00:44:16.553Z,100405.41
2024-03-06T00:46:43.169Z,100410.78
2024-03-06T00:49:09.599Z,100412.47
2024-03-06T00:51:44.702Z,100434.53
2024-03-06T00:54:14.945Z,100417.88
2024-03-06T00:56:41.348Z,100431.06
2024-03-06T00:59:08.024Z,100432.00
2024-03-06T01:01:34.701Z,100426.75
2024-03-06T01:04:03.118Z,100430.31
2024-03-06T01:06:29.555Z,100431.94
2024-03-06T01:08:58.408Z,100432.91
2024-03-06T01:11:25.446Z,100440.88
2024-03-06T01:13:51.959Z,100457.69
2024-03-06T01:16:18.431Z,100444.56
2024-03-06T01:18:45.190Z,100446.28
2024-03-06T01:21:11.629Z,100457.72
2024-03-06T01:23:38.068Z,100449.00
2024-03-06T01:26:04.786Z,100456.91
2024-03-06T01:28:31.312Z,100449.00
2024-03-06T01:31:00.080Z,100448.13
2024-03-06T01:33:27.118Z,100442.78
2024-03-06T01:35:53.477Z,100442.81
2024-03-06T01:38:19.929Z,100448.00
2024-03-06T01:40:46.646Z,100442.84
2024-03-06T01:43:24.805Z,100436.69
2024-03-06T01:45:52.683Z,100441.06
2024-03-06T01:48:22.617Z,100448.09
2024-03-06T01:50:49.073Z,100449.78
2024-03-06T01:53:19.367Z,100451.59
2024-03-06T01:55:46.471Z,100445.53
2024-03-06T01:58:13.136Z,100448.16
2024-03-06T02:00:39.721Z,100455.13
2024-03-06T02:03:06.778Z,100454.19
2024-03-06T02:05:34.020Z,100457.66
2024-03-06T02:08:00.895Z,100459.41
2024-03-06T02:10:28.361Z,100459.50
2024-03-06T02:12:55.509Z,100460.38
2024-03-06T02:15:22.147Z,100466.50
2024-03-06T02:17:48.585Z,100465.63
2024-03-06T02:20:16.913Z,100458.53
2024-03-06T02:22:43.672Z,100458.47
2024-03-06T02:25:10.534Z,100458.38
2024-03-06T02:27:37.454Z,100460.22
2024-03-06T02:30:04.144Z,100457.59
2024-03-06T02:32:31.736Z,100459.25
2024-03-06T02:34:58.201Z,100460.16
2024-03-06T02:37:25.755Z,100456.63
2024-03-06T02:39:52.234Z,100447.03
2024-03-06T02:42:18.592Z,100450.53
2024-03-06T02:44:45.089Z,100452.25
2024-03-06T02:47:11.554Z,100451.34
2024-03-06T02:49:38.095Z,100451.41
2024-03-06T02:52:04.736Z,100447.91
2024-03-06T02:54:31.308Z,100451.34
2024-03-06T02:56:57.722Z,100452.25
2024-03-06T02:59:25.057Z,100454.03
2024-03-06T03:01:51.604Z,100459.34
2024-03-06T03:04:18.350Z,100458.53
2024-03-06T03:06:44.766Z,100460.38
2024-03-06T03:09:12.954Z,100456.91
2024-03-06T03:11:39.477Z,100466.59
2024-03-06T03:14:05.988Z,100462.22
2024-03-06T03:16:33.465Z,100468.38
2024-03-06T03:18:59.907Z,100467.53
2024-03-06T03:21:26.351Z,100471.97
2024-03-06T03:23:52.721Z,100479.88
2024-03-06T03:26:19.304Z,100476.34
2024-03-06T03:28:46.112Z,100465.84
2024-03-06T03:31:12.807Z,100478.97
2024-03-06T03:33:42.766Z,100481.59
2024-03-06T03:36:10.053Z,100478.09
2024-03-06T03:38:39.497Z,100481.56
2024-03-06T03:41:10.170Z,100486.75
2024-03-06T03:43:36.961Z,100479.72
2024-03-06T03:46:05.292Z,100472.72
2024-03-06T03:48:32.749Z,100472.78
2024-03-06T03:50:59.141Z,100467.56
2024-03-06T03:53:25.637Z,100480.75
2024-03-06T03:55:52.112Z,100477.19
2024-03-06T03:58:18.578Z,100474.56
2024-03-06T04:00:45.739Z,100482.44
2024-03-06T04:03:12.185Z,100483.28
2024-03-06T04:05:38.629Z,100483.34
2024-03-06T04:08:07.517Z,100485.97
2024-03-06T04:10:34.049Z,100477.19
2024-03-06T04:13:00.942Z,100487.66
2024-03-06T04:15:27.886Z,100489.47
2024-03-06T04:17:54.325Z,100492.06
2024-03-06T04:20:20.793Z,100496.50
2024-03-06T04:22:49.027Z,100498.22
2024-03-06T04:25:15.561Z,100508.78
2024-03-06T04:27:41.943Z,100500.03
2024-03-06T04:30:09.106Z,100505.28
2024-03-06T04:32:35.544Z,100512.28
2024-03-06T04:35:02.198Z,100513.22
2024-03-06T04:37:30.394Z,100512.25
2024-03-06T04:39:56.841Z,100521.09
2024-03-06T04:42:23.282Z,100528.09
2024-03-06T04:44:49.754Z,100521.06
2024-03-06T04:47:16.429Z,100521.06
2024-03-06T04:49:43.635Z,100525.50
2024-03-06T04:52:10.310Z,100525.50
2024-03-06T04:54:36.727Z,100523.66
2024-03-06T04:57:03.885Z,100522.78
2024-03-06T04:59:30.320Z,100533.34
2024-03-06T05:01:56.904Z,100538.59
2024-03-06T05:59:09.127Z,100608.84
2024-03-06T06:01:36.046Z,100615.81
2024-03-06T06:04:05.449Z,100617.59
2024-03-06T06:06:34.234Z,100617.59
2024-03-06T06:09:00.641Z,100620.25
2024-03-06T06:11:27.140Z,100629.06
2024-03-06T06:13:53.551Z,100631.69
2024-03-06T06:16:19.964Z,100631.69
2024-03-06T06:18:46.352Z,100638.72
2024-03-06T06:21:12.883Z,100642.22
2024-03-06T06:23:39.355Z,100638.72
2024-03-06T06:26:06.277Z,100643.97
2024-03-06T06:28:32.693Z,100643.13
2024-03-06T06:30:59.176Z,100642.28
2024-03-06T06:33:25.586Z,100644.91
2024-03-06T06:35:52.960Z,100658.97
2024-03-06T06:38:19.374Z,100652.81
2024-03-06T06:40:45.864Z,100649.28
2024-03-06T06:43:12.238Z,100654.56
2024-03-06T06:45:39.252Z,100658.94
2024-03-06T06:48:06.096Z,100653.66
2024-03-06T06:50:34.526Z,100651.00
2024-03-06T06:53:01.472Z,100658.00
2024-03-06T06:55:28.007Z,100662.47
2024-03-06T06:57:54.888Z,100675.63
2024-03-06T07:00:23.764Z,100680.03
2024-03-06T07:02:50.595Z,100681.78
2024-03-06T07:05:17.175Z,100682.66
2024-03-06T07:07:43.592Z,100688.81
2024-03-06T07:10:10.406Z,100693.19
2024-03-06T07:12:37.282Z,100696.72
2024-03-06T07:15:04.120Z,100695.84
2024-03-06T07:17:30.561Z,100694.06
2024-03-06T07:19:57.856Z,100697.56
2024-03-06T07:22:24.528Z,100697.56
2024-03-06T07:24:50.982Z,100703.69
2024-03-06T07:27:17.473Z,100701.91
2024-03-06T07:29:43.901Z,100696.59
2024-03-06T07:32:10.656Z,100701.00
2024-03-06T07:34:37.136Z,100706.28
2024-03-06T07:37:06.084Z,100710.59
2024-03-06T07:39:33.526Z,100707.06
2024-03-06T07:41:59.927Z,100707.94
2024-03-06T07:44:26.408Z,100706.16
2024-03-06T07:46:54.782Z,100715.78
2024-03-06T07:49:23.018Z,100712.19
2024-03-06T07:51:49.695Z,100713.13
2024-03-06T07:54:16.150Z,100713.03
2024-03-06T07:56:42.756Z,100725.38
2024-03-06T07:59:09.919Z,100721.75
2024-03-06T08:01:36.482Z,100731.41
2024-03-06T08:04:03.253Z,100731.38
2024-03-06T08:06:30.560Z,100723.31
2024-03-06T08:08:58.512Z,100729.41
2024-03-06T08:11:26.382Z,100726.56
2024-03-06T08:14:04.034Z,100723.16
2024-03-06T08:16:33.709Z,100722.00
2024-03-06T08:19:01.867Z,100724.81
2024-03-06T08:21:29.043Z,100730.44
2024-03-06T08:23:55.492Z,100730.06
2024-03-06T08:26:23.969Z,100724.31
2024-03-06T08:28:50.468Z,100729.13
2024-03-06T08:31:16.863Z,100735.09
2024-03-06T08:33:44.532Z,100732.44
2024-03-06T08:36:11.285Z,100730.63
2024-03-06T08:38:37.706Z,100727.91
2024-03-06T08:41:04.290Z,100728.22
2024-03-06T08:43:30.694Z,100727.88
2024-03-06T08:45:57.099Z,100739.03
2024-03-06T08:48:23.549Z,100735.38
2024-03-06T08:50:50.064Z,100743.91
2024-03-06T08:53:17.165Z,100735.94
2024-03-06T08:55:43.602Z,100739.94
2024-03-06T08:58:10.117Z,100736.53
2024-03-06T09:00:36.526Z,100744.66
2024-03-06T09:03:03.039Z,100742.78
2024-03-06T09:05:29.564Z,100751.53
2024-03-06T09:08:00.590Z,100751.31
2024-03-06T09:10:28.733Z,100750.94
2024-03-06T09:12:55.168Z,100751.94
2024-03-06T09:15:21.556Z,100753.88
2024-03-06T09:17:48.522Z,100757.16
2024-03-06T09:20:17.124Z,100755.44
2024-03-06T09:22:44.051Z,100757.78
2024-03-06T09:25:13.414Z,100755.81
2024-03-06T09:27:39.888Z,100757.84
2024-03-06T09:30:07.073Z,100752.44
2024-03-06T09:32:34.044Z,100758.63
2024-03-06T09:35:00.854Z,100761.28
2024-03-06T09:37:28.561Z,100765.91
2024-03-06T09:39:54.956Z,100758.88
2024-03-06T09:42:21.568Z,100763.94
2024-03-06T09:44:48.983Z,100758.34
2024-03-06T09:47:19.476Z,100757.56
2024-03-06T09:49:45.937Z,100763.84
2024-03-06T09:52:12.578Z,100758.38
2024-03-06T09:54:40.556Z,100756.28
2024-03-06T09:57:07.209Z,100752.56
2024-03-06T09:59:34.202Z,100754.78
2024-03-06T10:02:03.881Z,100757.72
2024-03-06T10:04:33.539Z,100755.69
2024-03-06T10:07:01.249Z,100754.69
2024-03-06T10:09:28.465Z,100753.59
2024-03-06T10:11:57.397Z,100751.13
2024-03-06T10:14:27.130Z,100750.72
2024-03-06T10:17:00.838Z,100754.53
2024-03-06T10:19:29.485Z,100759.16
2024-03-06T10:21:58.067Z,100754.06
2024-03-06T10:24:30.749Z,100756.47
2024-03-06T10:26:59.843Z,100760.66
2024-03-06T10:29:28.284Z,100758.28
2024-03-06T10:31:56.868Z,100763.94
2024-03-06T10:34:25.540Z,100751.66
2024-03-06T10:36:56.055Z,100754.09
2024-03-06T10:39:23.251Z,100758.41
2024-03-06T10:41:55.559Z,100757.16
2024-03-06T10:44:25.335Z,100758.47
2024-03-06T10:47:01.158Z,100765.28
2024-03-06T10:49:29.081Z,100762.91
2024-03-06T10:51:59.454Z,100761.84
2024-03-06T10:54:31.021Z,100762.28
2024-03-06T10:56:57.756Z,100765.38
2024-03-06T10:59:28.859Z,100760.09
2024-03-06T11:02:01.858Z,100764.53
2024-03-06T11:04:31.217Z,100761.31
2024-03-06T11:07:00.500Z,100766.59
2024-03-06T11:09:27.905Z,100765.06
2024-03-06T11:11:56.328Z,100765.91
2024-03-06T11:14:23.951Z,100768.03
2024-03-06T11:16:59.956Z,100753.50
2024-03-06T11:19:28.306Z,100747.31
2024-03-06T11:21:54.797Z,100756.94
2024-03-06T11:24:34.559Z,100765.16
2024-03-06T11:27:06.521Z,100756.47
2024-03-06T11:30:17.334Z,100753.31
2024-03-06T11:33:00.322Z,100760.03
2024-03-06T11:35:29.192Z,100766.13
2024-03-06T11:37:56.016Z,100764.91
2024-03-06T11:40:26.324Z,100763.31
2024-03-06T11:42:53.379Z,100768.38
2024-03-06T11:45:26.005Z,100759.66
2024-03-06T11:48:18.339Z,100757.56
2024-03-06T11:50:45.764Z,100762.84
2024-03-06T11:53:14.047Z,100758.22
2024-03-06T11:55:40.555Z,100754.63
2024-03-06T11:58:09.105Z,100761.78
2024-03-06T12:00:35.536Z,100753.56
2024-03-06T12:03:02.014Z,100750.50
2024-03-06T12:05:28.955Z,100752.13
2024-03-06T12:07:55.556Z,100748.69
2024-03-06T12:10:21.998Z,100752.06
2024-03-06T12:12:48.610Z,100752.78
2024-03-06T12:15:16.515Z,100749.28
2024-03-06T12:17:47.806Z,100755.69
2024-03-06T12:20:17.485Z,100749.81
2024-03-06T12:22:51.624Z,100754.16
2024-03-06T12:25:23.145Z,100755.03
2024-03-06T12:27:50.751Z,100752.47
2024-03-06T12:30:21.757Z,100748.00
2024-03-06T12:32:58.959Z,100755.31
2024-03-06T12:35:27.238Z,100760.38
2024-03-06T12:37:54.181Z,100755.78
2024-03-06T12:40:21.138Z,100751.44
2024-03-06T12:42:47.541Z,100752.31
2024-03-06T12:45:16.954Z,100754.75
2024-03-06T12:47:44.491Z,100746.69
2024-03-06T12:50:11.808Z,100758.41
2024-03-06T12:52:39.018Z,100755.84
2024-03-06T12:55:08.827Z,100744.56
2024-03-06T12:57:35.485Z,100743.81
2024-03-06T13:00:02.033Z,100738.72
2024-03-06T13:02:28.475Z,100739.25
2024-03-06T13:04:55.067Z,100737.69
2024-03-06T13:07:21.475Z,100740.09
2024-03-06T13:09:47.912Z,100741.09
2024-03-06T13:12:14.445Z,100747.34
2024-03-06T13:14:40.958Z,100740.94
2024-03-06T13:17:07.572Z,100746.44
2024-03-06T13:19:34.072Z,100752.31
2024-03-06T13:22:03.631Z,100748.47
2024-03-06T13:24:31.974Z,100751.19
2024-03-06T13:26:58.503Z,100747.19
2024-03-06T13:29:24.932Z,100752.81
2024-03-06T13:31:51.393Z,100757.16
2024-03-06T13:34:17.789Z,100756.19
2024-03-06T13:36:44.749Z,100757.00
2024-03-06T13:39:11.261Z,100756.09
2024-03-06T13:41:37.916Z,100751.59
2024-03-06T13:44:04.440Z,100755.00
2024-03-06T13:46:31.090Z,100757.75
2024-03-06T13:48:57.507Z,100754.81
2024-03-06T13:51:23.962Z,100752.59
2024-03-06T13:53:50.454Z,100753.91
2024-03-06T13:56:17.373Z,100748.53
2024-03-06T13:58:43.840Z,100753.53
2024-03-06T14:01:10.336Z,100758.13
2024-03-06T14:03:40.012Z,100750.88
2024-03-06T14:06:08.309Z,100761.53
2024-03-06T14:08:34.799Z,100761.28
2024-03-06T14:11:01.398Z,100755.09
2024-03-06T14:13:27.913Z,100757.06
2024-03-06T14:15:54.329Z,100761.00
2024-03-06T14:18:20.836Z,100764.78
2024-03-06T14:20:47.301Z,100767.72
2024-03-06T14:23:13.855Z,100766.44
2024-03-06T14:25:40.384Z,100765.53
2024-03-06T14:28:06.768Z,100766.94
2024-03-06T14:30:33.219Z,100769.78
2024-03-06T14:33:00.143Z,100766.88
2024-03-06T14:35:26.829Z,100767.00
2024-03-06T14:37:53.248Z,100776.44
2024-03-06T14:40:19.637Z,100775.88
2024-03-06T14:42:46.031Z,100778.81
2024-03-06T14:45:12.718Z,100777.94
2024-03-06T14:47:39.315Z,100773.88
2024-03-06T14:50:06.434Z,100775.63
2024-03-06T14:52:32.873Z,100780.97
2024-03-06T14:54:59.323Z,100781.13
2024-03-06T14:57:25.862Z,100780.59
2024-03-06T14:59:52.945Z,100785.16
2024-03-06T15:02:20.235Z,100788.34
2024-03-06T15:04:46.718Z,100786.03
2024-03-06T15:07:13.484Z,100784.78
2024-03-06T15:09:39.910Z,100786.91
2024-03-06T15:12:06.767Z,100782.63
2024-03-06T15:14:39.431Z,100789.38
2024-03-06T15:17:09.233Z,100787.63
2024-03-06T15:19:35.881Z,100786.03
2024-03-06T15:22:04.517Z,100784.28
2024-03-06T15:24:31.643Z,100791.91
2024-03-06T15:26:58.223Z,100786.06
2024-03-06T15:29:24.720Z,100780.44
2024-03-06T15:31:51.174Z,100787.63
2024-03-06T15:34:18.299Z,100781.31
2024-03-06T15:36:44.759Z,100786.72
2024-03-06T15:39:11.181Z,100780.44
2024-03-06T15:41:37.631Z,100777.69
2024-03-06T15:44:04.116Z,100784.88
2024-03-06T15:46:30.693Z,100784.00
2024-03-06T15:48:57.116Z,100784.19
2024-03-06T15:51:23.691Z,100786.56
2024-03-06T15:53:52.428Z,100782.78
2024-03-06T15:56:19.628Z,100781.13
2024-03-06T15:58:46.050Z,100789.56
2024-03-06T16:01:12.561Z,100781.81
2024-03-06T16:03:38.976Z,100791.88
2024-03-06T16:06:14.337Z,100794.75
2024-03-06T16:08:44.832Z,100777.81
2024-03-06T16:11:11.733Z,100789.06
2024-03-06T16:13:38.934Z,100780.59
2024-03-06T16:16:05.909Z,100786.91
2024-03-06T16:18:32.359Z,100788.66
2024-03-06T16:20:59.360Z,100793.84
2024-03-06T16:23:25.838Z,100793.78
2024-03-06T16:25:52.403Z,100792.13
2024-03-06T16:28:19.737Z,100792.91
2024-03-06T16:30:46.350Z,100803.53
2024-03-06T16:33:12.975Z,100802.56
2024-03-06T16:35:39.421Z,100801.25
2024-03-06T16:38:07.108Z,100804.09
2024-03-06T16:40:34.008Z,100813.97
2024-03-06T16:43:00.762Z,100812.00
2024-03-06T16:45:27.234Z,100814.00
2024-03-06T16:47:53.809Z,100812.84
2024-03-06T16:50:21.119Z,100812.09
2024-03-06T16:52:47.829Z,100823.44
2024-03-06T16:55:14.663Z,100818.56
2024-03-06T16:57:41.141Z,100825.94
2024-03-06T17:00:09.507Z,100825.72
2024-03-06T17:02:36.760Z,100830.44
2024-03-06T17:05:03.575Z,100830.41
2024-03-06T17:07:30.369Z,100825.50
2024-03-06T17:09:56.851Z,100826.00
2024-03-06T17:12:23.389Z,100831.31
2024-03-06T17:14:49.924Z,100827.13
2024-03-06T17:17:16.449Z,100833.69
2024-03-06T17:19:42.921Z,100832.38
2024-03-06T17:22:09.860Z,100830.94
2024-03-06T17:24:36.237Z,100832.81
2024-03-06T17:27:02.697Z,100834.72
2024-03-06T17:29:29.273Z,100836.34
2024-03-06T17:31:55.784Z,100842.13
2024-03-06T17:34:22.236Z,100846.06
2024-03-06T17:36:48.672Z,100842.53
2024-03-06T17:39:16.368Z,100853.09
2024-03-06T17:41:46.086Z,100850.38
2024-03-06T17:44:12.628Z,100857.13
2024-03-06T17:46:39.089Z,100860.72
2024-03-06T17:49:05.744Z,100862.03
2024-03-06T17:51:33.842Z,100867.22
2024-03-06T17:54:00.820Z,100870.00
2024-03-06T17:56:27.423Z,100871.78
2024-03-06T17:58:54.008Z,100871.00
2024-03-06T18:01:26.595Z,100871.06
2024-03-06T18:03:56.760Z,100881.75
2024-03-06T18:06:23.300Z,100880.84
2024-03-06T18:08:50.232Z,100880.13
2024-03-06T18:11:16.801Z,100883.94
2024-03-06T18:13:43.541Z,100889.34
2024-03-06T18:16:10.774Z,100890.28
2024-03-06T18:18:38.464Z,100889.38
2024-03-06T18:21:06.907Z,100896.50
2024-03-06T18:23:33.375Z,100904.84
2024-03-06T18:26:00.456Z,100905.91
2024-03-06T18:28:27.825Z,100896.09
2024-03-06T18:30:54.289Z,100901.59
2024-03-06T18:33:21.294Z,100899.72
2024-03-06T18:35:47.901Z,100895.47
2024-03-06T18:38:14.516Z,100894.63
2024-03-06T18:40:40.971Z,100900.91
2024-03-06T18:43:07.376Z,100908.19
2024-03-06T18:45:33.838Z,100909.84
2024-03-06T18:48:01.129Z,100910.78
2024-03-06T18:50:29.592Z,100909.91
2024-03-06T18:52:57.922Z,100922.06
2024-03-06T18:55:24.323Z,100915.25
2024-03-06T18:57:50.698Z,100922.31
2024-03-06T19:00:17.811Z,100919.94
2024-03-06T19:02:44.264Z,100927.94
2024-03-06T19:05:11.193Z,100932.31
2024-03-06T19:07:38.767Z,100934.09
2024-03-06T19:10:06.933Z,100940.34
2024-03-06T19:12:33.461Z,100936.19
2024-03-06T19:15:00.040Z,100939.66
2024-03-06T19:17:26.610Z,100946.66
2024-03-06T19:19:53.983Z,100949.44
2024-03-06T19:22:20.401Z,100951.25
2024-03-06T19:24:48.241Z,100943.16
2024-03-06T19:27:15.024Z,100946.59
2024-03-06T19:29:41.567Z,100937.94
2024-03-06T19:32:11.431Z,100944.13
2024-03-06T19:34:38.110Z,100952.13
2024-03-06T19:37:04.760Z,100946.78
2024-03-06T19:39:32.116Z,100949.50
2024-03-06T19:41:59.258Z,100948.47
2024-03-06T19:44:27.962Z,100950.31
2024-03-06T19:46:54.733Z,100952.25
2024-03-06T19:49:21.451Z,100952.88
2024-03-06T19:51:48.247Z,100958.44
2024-03-06T19:54:14.850Z,100953.00
2024-03-06T19:56:41.271Z,100953.03
2024-03-06T19:59:08.169Z,100951.00
2024-03-06T20:01:35.724Z,100953.75
2024-03-06T20:04:02.581Z,100954.63
2024-03-06T20:06:31.768Z,100946.72
2024-03-06T20:08:59.347Z,100954.84
2024-03-06T20:11:27.313Z,100944.19
2024-03-06T20:13:54.220Z,100951.56
2024-03-06T20:16:21.148Z,100951.41
2024-03-06T20:18:49.902Z,100951.41
2024-03-06T20:21:16.378Z,100951.41
2024-03-06T20:23:42.861Z,100953.88
2024-03-06T20:26:09.555Z,100954.72
2024-03-06T20:28:36.121Z,100958.63
2024-03-06T20:31:02.698Z,100954.94
2024-03-06T20:33:31.202Z,100956.63
2024-03-06T20:35:57.977Z,100958.56
2024-03-06T20:38:25.884Z,100954.06
2024-03-06T20:40:52.625Z,100955.84
2024-03-06T20:43:20.709Z,100963.06
2024-03-06T20:45:48.950Z,100955.97
2024-03-06T20:48:15.514Z,100954.78
2024-03-06T20:50:42.206Z,100954.00
2024-03-06T20:53:08.897Z,100953.78
2024-03-06T20:55:35.468Z,100951.59
2024-03-06T20:58:02.983Z,100958.69
2024-03-06T21:00:31.732Z,100948.47
2024-03-06T21:02:58.337Z,100952.06
2024-03-06T21:05:24.907Z,100950.25
2024-03-06T21:07:51.382Z,100947.66
2024-03-06T21:10:18.586Z,100951.16
2024-03-06T21:12:49.033Z,100943.47
2024-03-06T21:15:16.347Z,100949.56
2024-03-06T21:17:43.448Z,100949.41
2024-03-06T21:20:14.340Z,100950.63
2024-03-06T21:22:42.393Z,100954.28
2024-03-06T21:25:10.075Z,100949.72
2024-03-06T21:27:37.526Z,100947.16
2024-03-06T21:30:07.886Z,100952.44
2024-03-06T21:32:35.093Z,100951.56
2024-03-06T21:35:01.829Z,100946.22
2024-03-06T21:37:29.439Z,100948.81
2024-03-06T21:39:55.923Z,100948.97
2024-03-06T21:42:22.791Z,100953.38
2024-03-06T21:44:49.260Z,100953.06
2024-03-06T21:47:15.751Z,100953.91
2024-03-06T21:49:42.341Z,100961.91
2024-03-06T21:52:11.950Z,100948.50
2024-03-06T21:54:39.137Z,100959.22
2024-03-06T21:57:08.419Z,100946.16
2024-03-06T21:59:34.876Z,100960.16
2024-03-06T22:02:01.530Z,100950.41
2024-03-06T22:04:27.979Z,100957.31
2024-03-06T22:06:54.527Z,100951.06
2024-03-06T22:09:20.929Z,100958.00
2024-03-06T22:11:47.473Z,100949.03
2024-03-06T22:14:14.140Z,100951.94
2024-03-06T22:16:41.018Z,100953.72
2024-03-06T22:19:07.828Z,100959.28
2024-03-06T22:21:34.258Z,100959.13
2024-03-06T22:24:00.841Z,100961.91
2024-03-06T22:26:27.362Z,100959.25
2024-03-06T22:28:54.075Z,100961.84
2024-03-06T22:31:20.677Z,100959.91
2024-03-06T22:33:47.166Z,100955.84
2024-03-06T22:36:17.693Z,100956.56
2024-03-06T22:38:46.342Z,100945.91
2024-03-06T22:41:23.044Z,100955.03
2024-03-06T22:43:50.265Z,100950.56
2024-03-06T22:46:17.109Z,100951.47
2024-03-06T22:48:43.754Z,100950.44
2024-03-06T22:51:11.960Z,100947.75
2024-03-06T22:53:38.656Z,100951.69
2024-03-06T22:56:05.196Z,100945.44
2024-03-06T22:58:32.633Z,100949.59
2024-03-06T23:00:59.124Z,100941.81
2024-03-06T23:03:25.587Z,100949.97
2024-03-06T23:05:52.300Z,100945.75
2024-03-06T23:08:18.880Z,100943.97
2024-03-06T23:10:45.383Z,100948.50
2024-03-06T23:13:16.263Z,100944.03
2024-03-06T23:15:43.539Z,100944.13
2024-03-06T23:18:10.852Z,100945.06
2024-03-06T23:20:37.582Z,100945.91
2024-03-06T23:23:04.830Z,100945.16
2024-03-06T23:25:32.042Z,100939.00
2024-03-06T23:27:59.006Z,100940.66
2024-03-06T23:30:26.578Z,100940.72
2024-03-06T23:32:53.292Z,100944.28
2024-03-06T23:35:20.205Z,100943.66
2024-03-06T23:37:46.767Z,100941.88
2024-03-06T23:40:15.001Z,100947.19
2024-03-06T23:42:43.536Z,100948.97
2024-03-06T23:45:11.705Z,100942.78
2024-03-06T23:47:39.524Z,100953.47
2024-03-06T23:50:07.379Z,100945.59
2024-03-06T23:52:33.872Z,100950.06
2024-03-06T23:55:01.012Z,100952.69
2024-03-06T23:57:28.147Z,100950.81
2024-03-06T23:59:55.210Z,100942.88
